Terminal Aerodrome Forecast
Issued by NWS

Home | Current Version | Previous Version | Text Only | Print | Product List | Glossary On
Versions: 1 2 3 4 5 6 7 8 9 10 11 12 13 14
000
FTUS44 KMOB 272326
TAFBFM
TAF
KBFM 272326Z 2800/2824 17008KT P6SM FEW025
     FM280300 19007KT P6SM SCT007 BKN015
     FM280900 20003KT P6SM BKN005 OVC015=

USA.gov is the U.S. government's official web portal to all federal, state and local government web resources and services.